EW4645 Weather Reports


Display with metric or nautical units.
time (UTC)temp
F
wind
direction
speed
MPH
gust
MPH
rain 1hr
in
rain 24hr
in
rain mn
in
humidity
%
barometer
mb
20180921072950 47 152 3.0 9.0 0.00 1.04 0.01 85 1006.7
20180921071446 47 156 2.0 8.0 0.00 1.04 0.01 86 1006.7
20180921065950 47 158 3.0 11.0 0.00 1.04 0.01 86 1006.5
20180921064447 46 152 2.0 7.0 0.00 1.04 0.01 86 1006.5
20180921062950 46 161 2.0 7.0 0.00 1.04 0.01 87 1006.3
20180921061446 45 145 3.0 11.0 0.00 1.04 0.01 87 1006.0
20180921055950 45 143 3.0 7.0 0.00 1.04 0.01 87 1006.1
20180921054446 45 141 3.0 9.0 0.00 1.04 0.01 87 1005.8
20180921052950 45 140 2.0 10.0 0.00 1.04 0.01 87 1005.6
20180921051447 45 136 3.0 8.0 0.00 1.04 0.01 87 1005.5
20180921045950 45 146 2.0 13.0 0.00 1.04 0.01 87 1005.5
20180921044447 45 135 2.0 9.0 0.00 1.04 0.01 87 1005.4
20180921042950 45 156 2.0 11.0 0.00 1.04 0.01 88 1005.4
20180921041446 45 152 1.0 6.0 0.00 1.04 0.01 87 1005.3
20180921035950 45 156 2.0 9.0 0.00 1.04 0.01 86 1005.1
20180921034447 45 155 2.0 6.0 0.00 1.04 0.01 86 1005.0
20180921032950 45 139 2.0 7.0 0.00 1.04 0.01 86 1004.8
20180921031447 45 151 2.0 7.0 0.00 1.04 0.01 85 1004.8
20180921025951 45 146 2.0 8.0 0.00 1.04 0.01 86 1004.7
20180921024447 45 141 1.0 4.0 0.00 1.04 0.01 85 1004.8
20180921022951 45 198 3.0 8.0 0.00 1.04 0.01 84 1005.0
20180921021446 46 154 2.0 11.0 0.00 1.04 0.01 84 1004.6
20180921015951 46 166 2.0 9.0 0.00 1.04 0.01 82 1004.5
20180921014447 46 177 1.0 8.0 0.00 1.04 0.01 81 1004.4
20180921012950 47 136 1.0 4.0 0.00 1.04 0.01 82 1004.0
20180921011447 47 134 2.0 8.0 0.00 1.04 0.01 81 1003.7
20180921005951 47 183 4.0 12.0 0.00 1.04 0.01 81 1003.6
20180921004447 46 181 6.0 14.0 0.00 1.04 0.01 83 1003.5
20180921002950 46 186 3.0 12.0 0.00 1.04 0.01 86 1003.2
20180921001447 46 174 3.0 11.0 0.00 1.04 0.01 86 1002.8
20180920235951 46 173 1.0 11.0 0.01 1.04 0.01 86 1002.4
20180920234447 46 149 2.0 8.0 0.01 1.04 0.01 86 1002.2
20180920232950 46 188 4.0 12.0 0.01 1.04 0.01 86 1001.9
20180920231447 46 189 4.0 11.0 0.01 1.04 0.01 87 1001.6
20180920225952 46 189 6.0 13.0 0.00 1.03 0.00 87 1001.3
20180920224448 46 201 8.0 16.0 0.00 1.03 1.03 88 1000.8
20180920222950 46 194 7.0 16.0 0.00 1.03 1.03 88 1000.3
20180920221447 46 229 9.0 21.0 0.00 1.03 1.03 88 999.5
20180920215951 46 235 8.0 21.0 0.00 1.03 1.03 89 998.9
20180920214447 46 236 7.0 20.0 0.00 1.03 1.03 89 998.8
20180920212951 46 250 6.0 14.0 0.00 1.03 1.03 90 997.9
20180920211447 45 266 8.0 15.0 0.00 1.03 1.03 89 997.6
20180920205951 46 258 9.0 17.0 0.00 1.03 1.03 90 997.3
20180920204447 46 249 10.0 24.0 0.01 1.03 1.03 90 996.9
20180920202950 46 245 8.0 20.0 0.03 1.03 1.03 91 996.4
20180920201448 46 277 10.0 20.0 0.05 1.03 1.03 91 995.7
20180920195951 46 273 11.0 23.0 0.06 1.03 1.03 91 995.2
20180920194447 47 253 12.0 28.0 0.05 1.02 1.02 92 996.1
20180920192950 47 251 11.0 25.0 0.02 1.00 1.00 92 995.6
20180920191447 47 263 10.0 21.0 0.02 0.98 0.98 92 994.6
20180920185951 47 267 11.0 22.0 0.01 0.98 0.98 92 994.3
20180920184448 48 266 11.0 20.0 0.02 0.98 0.98 92 994.2
20180920182950 48 263 9.0 21.0 0.03 0.98 0.98 93 994.1
20180920181448 49 264 9.0 22.0 0.11 0.97 0.97 93 994.1
20180920175951 50 267 8.0 17.0 0.19 0.97 0.97 93 994.2
20180920174447 50 266 8.0 16.0 0.21 0.96 0.96 93 994.5
20180920172951 50 270 7.0 13.0 0.29 0.94 0.94 93 994.5
20180920171447 51 291 5.0 12.0 0.22 0.83 0.83 93 994.6
20180920165951 51 298 4.0 8.0 0.21 0.78 0.78 93 995.3
20180920164448 51 315 4.0 10.0 0.19 0.75 0.75 93 995.5
20180920162951 51 322 4.0 9.0 0.09 0.65 0.65 93 995.7
20180920161448 51 328 3.0 8.0 0.06 0.61 0.61 93 996.3
20180920155951 51 333 4.0 9.0 0.01 0.57 0.57 93 996.5
20180920154448 51 335 4.0 9.0 0.00 0.56 0.56 92 997.0
20180920152951 51 341 6.0 13.0 0.00 0.56 0.56 92 997.4
20180920151448 51 330 5.0 12.0 0.00 0.56 0.56 92 997.7
20180920145951 51 317 6.0 12.0 0.03 0.56 0.56 92 998.2
20180920144448 51 328 6.0 14.0 0.04 0.56 0.56 93 998.6
20180920142952 51 296 5.0 13.0 0.05 0.56 0.56 93 999.2
20180920141448 51 326 6.0 12.0 0.05 0.56 0.56 93 998.8
20180920135951 51 326 6.0 11.0 0.04 0.53 0.53 93 999.3
20180920134448 50 316 7.0 14.0 0.09 0.52 0.52 93 999.8
20180920132951 50 320 6.0 13.0 0.15 0.51 0.51 93 1000.1
20180920131447 51 305 4.0 11.0 0.18 0.51 0.51 92 1000.5
20180920125952 51 296 5.0 10.0 0.19 0.49 0.49 93 1000.8
20180920124447 51 304 6.0 11.0 0.15 0.43 0.43 93 1001.1
20180920122951 52 323 5.0 12.0 0.10 0.36 0.36 93 1000.9
20180920121448 52 343 5.0 10.0 0.09 0.33 0.33 93 1001.3
20180920115952 52 351 7.0 10.0 0.08 0.30 0.30 93 1001.9
20180920114447 52 353 5.0 8.0 0.07 0.28 0.28 93 1002.3
20180920112951 52 352 4.0 8.0 0.06 0.25 0.25 92 1002.9
20180920111448 52 347 4.0 10.0 0.07 0.24 0.24 92 1003.0
20180920105952 52 346 4.0 7.0 0.08 0.22 0.22 92 1003.8
20180920104448 52 350 4.0 9.0 0.09 0.20 0.20 91 1004.4
20180920102952 52 340 1.0 6.0 0.10 0.19 0.19 91 1005.2
20180920101448 52 337 2.0 5.0 0.10 0.17 0.17 91 1005.4
20180920095951 52 335 1.0 5.0 0.09 0.13 0.13 90 1005.8
20180920094448 52 328 0.0 3.0 0.09 0.11 0.11 89 1006.1
20180920092952 52 316 1.0 1.0 0.07 0.09 0.09 89 1006.3
20180920091448 52 306 0.0 3.0 0.05 0.06 0.06 89 1006.3
20180920085952 52 302 0.0 2.0 0.04 0.04 0.04 87 1006.8
20180920084448 52 288 1.0 3.0 0.02 0.02 0.02 87 1007.0
20180920082952 52 234 0.0 3.0 0.02 0.02 0.02 86 1007.0
20180920081448 52 147 0.0 2.0 0.01 0.01 0.01 85 1007.5
20180920075951 52 0 0.0 0.0 0.00 0.01 0.00 85 1007.7
20180920074448 52 0 0.0 0.0 0.00 0.01 0.00 84 1008.0